createdAt,value
2017-11-13T00:00:08.891Z,4.59
2017-11-13T00:01:08.891Z,4.62
2017-11-13T00:02:08.844Z,4.42
2017-11-13T00:03:08.853Z,4.45
2017-11-13T00:04:08.843Z,4.52
2017-11-13T00:05:08.782Z,4.49
2017-11-13T00:06:08.808Z,4.52
2017-11-13T00:07:08.744Z,4.53
2017-11-13T00:08:08.721Z,4.45
2017-11-13T00:09:08.734Z,4.49
2017-11-13T00:10:08.709Z,4.52
2017-11-13T00:11:08.706Z,4.44
2017-11-13T00:12:08.629Z,4.53
2017-11-13T00:13:08.609Z,4.53
2017-11-13T00:14:08.609Z,4.56
2017-11-13T00:15:08.600Z,4.48
2017-11-13T00:16:08.536Z,4.52
2017-11-13T00:17:08.513Z,4.40
2017-11-13T00:18:08.560Z,4.50
2017-11-13T00:19:08.485Z,4.42
2017-11-13T00:20:08.475Z,4.49
2017-11-13T00:21:08.433Z,4.44
2017-11-13T00:22:08.381Z,4.44
2017-11-13T00:23:08.389Z,4.41
2017-11-13T00:24:08.395Z,4.42
2017-11-13T00:25:08.371Z,4.34
2017-11-13T00:26:08.398Z,4.40
2017-11-13T00:27:08.272Z,4.37
2017-11-13T00:28:08.281Z,4.48
2017-11-13T00:29:08.281Z,4.42
2017-11-13T00:30:08.235Z,4.32
2017-11-13T00:31:08.197Z,4.35
2017-11-13T00:32:08.148Z,4.35
2017-11-13T00:33:08.118Z,4.42
2017-11-13T00:34:08.129Z,4.35
2017-11-13T00:35:08.113Z,4.34
2017-11-13T00:36:08.043Z,4.41
2017-11-13T00:37:08.022Z,4.41
2017-11-13T00:38:07.997Z,4.34
2017-11-13T00:39:07.981Z,4.28
2017-11-13T00:40:07.986Z,4.37
2017-11-13T00:41:07.930Z,4.32
2017-11-13T00:42:07.899Z,4.35
2017-11-13T00:43:07.911Z,4.28
2017-11-13T00:44:07.852Z,4.34
2017-11-13T00:45:07.836Z,4.28
2017-11-13T00:46:07.824Z,4.31
2017-11-13T00:47:07.824Z,4.30
2017-11-13T00:48:07.763Z,4.28
2017-11-13T00:49:07.779Z,4.28
2017-11-13T00:50:07.718Z,4.31
2017-11-13T00:51:07.689Z,4.24
2017-11-13T00:52:07.665Z,4.26
2017-11-13T00:53:17.216Z,4.24
2017-11-13T00:54:07.656Z,4.28
2017-11-13T00:55:07.596Z,4.24
2017-11-13T00:56:07.605Z,4.28
2017-11-13T00:57:07.576Z,4.22
2017-11-13T00:58:07.520Z,4.28
2017-11-13T00:59:07.543Z,4.28
2017-11-13T01:00:07.475Z,4.31
2017-11-13T01:01:07.456Z,4.23
2017-11-13T01:02:07.425Z,4.20
2017-11-13T01:03:07.410Z,4.24
2017-11-13T01:04:07.425Z,4.24
2017-11-13T01:05:07.358Z,4.26
2017-11-13T01:06:07.343Z,4.23
2017-11-13T01:07:07.307Z,4.24
2017-11-13T01:08:07.282Z,4.23
2017-11-13T01:09:07.294Z,4.30
2017-11-13T01:10:07.234Z,4.19
2017-11-13T01:11:07.209Z,4.23
2017-11-13T01:12:07.186Z,4.19
2017-11-13T01:13:07.162Z,4.17
2017-11-13T01:14:07.188Z,4.23
2017-11-13T01:15:07.115Z,4.26
2017-11-13T01:16:07.092Z,4.23
2017-11-13T01:17:07.101Z,4.23
2017-11-13T01:18:07.041Z,4.24
2017-11-13T01:19:07.025Z,4.26
2017-11-13T01:20:07.003Z,4.26
2017-11-13T01:21:06.979Z,4.23
2017-11-13T01:22:06.991Z,4.22
2017-11-13T01:23:06.928Z,4.30
2017-11-13T01:24:06.904Z,4.28
2017-11-13T01:25:06.877Z,4.30
2017-11-13T01:26:06.853Z,4.24
2017-11-13T01:27:06.877Z,4.31
2017-11-13T01:28:06.805Z,4.30
2017-11-13T01:29:06.782Z,4.24
2017-11-13T01:30:06.757Z,4.24
2017-11-13T01:31:06.736Z,4.28
2017-11-13T01:32:06.751Z,4.28
2017-11-13T01:33:06.686Z,4.24
2017-11-13T01:34:06.663Z,4.28
2017-11-13T01:35:06.639Z,4.23
2017-11-13T01:36:06.615Z,4.26
2017-11-13T01:37:06.626Z,4.28
2017-11-13T01:38:06.565Z,4.30
2017-11-13T01:39:06.552Z,4.26
2017-11-13T01:40:06.571Z,4.26
2017-11-13T01:41:06.496Z,4.24
2017-11-13T01:42:06.471Z,4.28
2017-11-13T01:43:06.449Z,4.28
2017-11-13T01:44:06.428Z,4.20
2017-11-13T01:45:06.446Z,4.28
2017-11-13T01:46:06.376Z,4.26
2017-11-13T01:47:06.355Z,4.26
2017-11-13T01:48:06.332Z,4.28
2017-11-13T01:49:06.306Z,4.26
2017-11-13T01:50:06.317Z,4.28
2017-11-13T01:51:06.260Z,4.20
2017-11-13T01:52:06.234Z,4.22
2017-11-13T01:53:06.248Z,4.24
2017-11-13T01:54:06.193Z,4.26
2017-11-13T01:55:06.163Z,4.24
2017-11-13T01:56:06.140Z,4.30
2017-11-13T01:57:06.118Z,4.31
2017-11-13T01:58:06.124Z,4.32
2017-11-13T01:59:06.068Z,4.35
2017-11-13T02:00:06.044Z,4.34
2017-11-13T02:01:06.023Z,4.34
2017-11-13T02:02:06.006Z,4.35
2017-11-13T02:03:06.005Z,4.37
2017-11-13T02:04:05.987Z,4.42
2017-11-13T02:05:05.960Z,4.34
2017-11-13T02:06:05.903Z,4.45
2017-11-13T02:07:05.876Z,4.41
2017-11-13T02:08:05.853Z,4.44
2017-11-13T02:09:05.870Z,4.42
2017-11-13T02:10:05.857Z,4.40
2017-11-13T02:11:15.754Z,4.41
2017-11-13T02:12:15.301Z,4.50
2017-11-13T02:13:05.738Z,4.45
2017-11-13T02:14:05.746Z,4.42
2017-11-13T02:15:05.686Z,4.48
2017-11-13T02:16:05.662Z,4.41
2017-11-13T02:17:05.677Z,4.48
2017-11-13T02:18:05.613Z,4.44
2017-11-13T02:19:05.620Z,4.50
2017-11-13T02:20:05.567Z,4.42
2017-11-13T02:21:05.580Z,4.49
2017-11-13T02:22:05.565Z,4.42
2017-11-13T02:23:05.494Z,4.42
2017-11-13T02:24:05.480Z,4.42
2017-11-13T02:25:05.496Z,4.48
2017-11-13T02:26:05.424Z,4.45
2017-11-13T02:27:05.435Z,4.41
2017-11-13T02:28:05.377Z,4.32
2017-11-13T02:29:05.352Z,4.32
2017-11-13T02:30:05.329Z,4.32
2017-11-13T02:31:05.305Z,4.31
2017-11-13T02:32:05.317Z,4.31
2017-11-13T02:33:05.291Z,4.37
2017-11-13T02:34:05.236Z,4.41
2017-11-13T02:35:05.209Z,4.35
2017-11-13T02:36:05.190Z,4.41
2017-11-13T02:37:05.162Z,4.48
2017-11-13T02:38:05.175Z,4.49
2017-11-13T02:39:05.123Z,4.52
2017-11-13T02:40:05.095Z,4.52
2017-11-13T02:41:05.071Z,4.55
2017-11-13T02:42:05.044Z,4.62
2017-11-13T02:43:05.056Z,4.60
2017-11-13T02:44:04.998Z,4.58
2017-11-13T02:45:05.013Z,4.58
2017-11-13T02:46:04.949Z,4.73
2017-11-13T02:47:04.929Z,4.63
2017-11-13T02:48:04.904Z,4.62
2017-11-13T02:49:04.921Z,4.71
2017-11-13T02:50:04.865Z,4.73
2017-11-13T02:51:04.831Z,4.71
2017-11-13T02:52:04.820Z,4.78
2017-11-13T02:53:04.786Z,4.75
2017-11-13T02:54:04.804Z,4.84
2017-11-13T02:55:04.736Z,4.80
2017-11-13T02:56:04.713Z,4.80
2017-11-13T02:57:04.688Z,4.86
2017-11-13T02:58:04.678Z,4.78
2017-11-13T02:59:04.684Z,4.94
2017-11-13T03:00:04.618Z,4.93
2017-11-13T03:01:04.598Z,4.89
2017-11-13T03:02:04.572Z,4.94
2017-11-13T03:03:04.547Z,4.89
2017-11-13T03:04:04.562Z,4.82
2017-11-13T03:05:14.344Z,4.94
2017-11-13T03:06:04.480Z,4.96
2017-11-13T03:07:04.451Z,4.90
2017-11-13T03:08:04.436Z,4.99
2017-11-13T03:09:04.440Z,4.99
2017-11-13T03:10:04.381Z,4.97
2017-11-13T03:11:04.356Z,4.96
2017-11-13T03:12:04.337Z,5.00
2017-11-13T03:13:04.311Z,4.99
2017-11-13T03:14:04.327Z,4.97
2017-11-13T03:15:04.262Z,4.99
2017-11-13T03:16:04.237Z,5.00
2017-11-13T03:17:04.217Z,4.93
2017-11-13T03:18:04.205Z,4.99
2017-11-13T03:19:04.223Z,4.96
2017-11-13T03:20:04.148Z,4.89
2017-11-13T03:21:04.122Z,4.87
2017-11-13T03:22:04.096Z,5.00
2017-11-13T03:23:04.072Z,4.99
2017-11-13T03:24:04.101Z,4.92
2017-11-13T03:25:04.036Z,4.99
2017-11-13T03:26:04.005Z,5.02
2017-11-13T03:27:04.019Z,4.94
2017-11-13T03:28:03.958Z,5.08
2017-11-13T03:29:03.932Z,5.04
2017-11-13T03:30:03.948Z,5.08
2017-11-13T03:31:03.892Z,5.10
2017-11-13T03:32:03.860Z,5.02
2017-11-13T03:33:03.878Z,5.12
2017-11-13T03:34:03.823Z,5.04
2017-11-13T03:35:03.792Z,5.07
2017-11-13T03:36:03.770Z,5.07
2017-11-13T03:37:03.745Z,5.07
2017-11-13T03:38:03.769Z,5.04
2017-11-13T03:39:03.699Z,5.05
2017-11-13T03:40:03.676Z,5.11
2017-11-13T03:41:03.660Z,5.00
2017-11-13T03:42:03.628Z,5.05
2017-11-13T03:43:03.649Z,5.07
2017-11-13T03:44:03.580Z,5.05
2017-11-13T03:45:03.564Z,5.02
2017-11-13T03:46:03.534Z,5.08
2017-11-13T03:47:03.511Z,5.04
2017-11-13T03:48:03.532Z,5.05
2017-11-13T03:49:03.464Z,5.05
2017-11-13T03:50:03.440Z,5.15
2017-11-13T03:51:03.417Z,5.00
2017-11-13T03:52:03.393Z,5.04
2017-11-13T03:53:03.408Z,5.07
2017-11-13T03:54:03.351Z,5.04
2017-11-13T03:55:03.323Z,5.18
2017-11-13T03:56:03.299Z,5.10
2017-11-13T03:57:03.308Z,5.25
2017-11-13T03:58:12.889Z,5.15
2017-11-13T03:59:03.269Z,5.14
2017-11-13T04:00:03.215Z,5.23
2017-11-13T04:01:03.187Z,5.33
2017-11-13T04:02:03.161Z,5.29
2017-11-13T04:03:03.177Z,5.30
2017-11-13T04:04:03.114Z,5.33
2017-11-13T04:05:03.088Z,5.29
2017-11-13T04:06:03.064Z,5.41
2017-11-13T04:07:03.076Z,5.41
2017-11-13T04:08:03.056Z,5.47
2017-11-13T04:09:02.997Z,5.39
2017-11-13T04:10:02.973Z,5.47
2017-11-13T04:11:02.954Z,5.50
2017-11-13T04:12:02.930Z,5.46
2017-11-13T04:13:02.941Z,5.53
2017-11-13T04:14:02.881Z,5.54
2017-11-13T04:15:02.854Z,5.56
2017-11-13T04:16:02.835Z,5.66
2017-11-13T04:17:02.858Z,5.54
2017-11-13T04:18:02.832Z,5.62
2017-11-13T04:19:02.770Z,5.53
2017-11-13T04:20:02.742Z,5.64
2017-11-13T04:21:02.755Z,5.61
2017-11-13T04:22:02.700Z,5.57
2017-11-13T04:23:02.701Z,5.65
2017-11-13T04:24:02.642Z,5.54
2017-11-13T04:25:02.625Z,5.56
2017-11-13T04:26:02.631Z,5.54
2017-11-13T04:27:02.577Z,5.53
2017-11-13T04:28:02.551Z,5.54
2017-11-13T04:29:02.533Z,5.51
2017-11-13T04:30:02.540Z,5.44
2017-11-13T04:31:02.481Z,5.47
2017-11-13T04:32:02.459Z,5.48
2017-11-13T04:33:02.440Z,5.36
2017-11-13T04:34:02.413Z,5.43
2017-11-13T04:35:02.422Z,5.38
2017-11-13T04:36:02.366Z,5.47
2017-11-13T04:37:02.340Z,5.41
2017-11-13T04:38:02.322Z,5.36
2017-11-13T04:39:02.340Z,5.32
2017-11-13T04:40:02.278Z,5.32
2017-11-13T04:41:02.246Z,5.28
2017-11-13T04:42:02.231Z,5.39
2017-11-13T04:43:02.201Z,5.29
2017-11-13T04:44:02.221Z,5.28
2017-11-13T04:45:02.154Z,5.35
2017-11-13T04:46:02.130Z,5.32
2017-11-13T04:47:02.109Z,5.36
2017-11-13T04:48:02.088Z,5.36
2017-11-13T04:49:02.093Z,5.28
2017-11-13T04:50:02.038Z,5.28
2017-11-13T04:51:02.064Z,5.26
2017-11-13T04:52:01.991Z,5.28
2017-11-13T04:53:01.977Z,5.32
2017-11-13T04:54:01.946Z,5.32
2017-11-13T04:55:01.921Z,5.32
2017-11-13T04:56:01.939Z,5.32
2017-11-13T04:57:01.874Z,5.28
2017-11-13T04:58:01.855Z,5.18
2017-11-13T04:59:01.839Z,5.20
2017-11-13T05:00:01.803Z,5.15
2017-11-13T05:01:01.820Z,5.17
2017-11-13T05:02:01.793Z,5.15
2017-11-13T05:03:01.737Z,5.15
2017-11-13T05:04:16.416Z,5.11
2017-11-13T05:05:01.692Z,5.04
2017-11-13T05:06:01.663Z,5.04
2017-11-13T05:07:01.681Z,5.07
2017-11-13T05:08:01.672Z,5.10
2017-11-13T05:09:01.596Z,5.14
2017-11-13T05:10:01.575Z,5.14
2017-11-13T05:11:01.546Z,5.11
2017-11-13T05:12:01.523Z,5.18
2017-11-13T05:13:01.545Z,5.17
2017-11-13T05:14:01.476Z,5.14
2017-11-13T05:15:01.453Z,5.17
2017-11-13T05:16:01.434Z,5.15
2017-11-13T05:17:01.409Z,5.28
2017-11-13T05:18:01.446Z,5.30
2017-11-13T05:19:01.403Z,5.29
2017-11-13T05:20:01.337Z,5.29
2017-11-13T05:21:01.314Z,5.28
2017-11-13T05:22:01.293Z,5.30
2017-11-13T05:23:01.267Z,5.32
2017-11-13T05:24:01.277Z,5.43
2017-11-13T05:25:01.259Z,5.29
2017-11-13T05:26:01.200Z,5.25
2017-11-13T05:27:01.174Z,5.29
2017-11-13T05:28:01.151Z,5.28
2017-11-13T05:29:01.128Z,5.29
2017-11-13T05:30:01.136Z,5.28
2017-11-13T05:31:01.077Z,5.33
2017-11-13T05:32:01.058Z,5.30
2017-11-13T05:33:01.031Z,5.26
2017-11-13T05:34:01.006Z,5.32
2017-11-13T05:35:01.028Z,5.28
2017-11-13T05:36:00.962Z,5.21
2017-11-13T05:37:00.938Z,5.26
2017-11-13T05:38:00.913Z,5.30
2017-11-13T05:39:00.894Z,5.33
2017-11-13T05:40:00.901Z,5.28
2017-11-13T05:41:00.843Z,5.17
2017-11-13T05:42:00.867Z,5.23
2017-11-13T05:43:00.804Z,5.18
2017-11-13T05:44:10.464Z,5.12
2017-11-13T05:45:10.501Z,5.15
2017-11-13T05:46:00.735Z,5.18
2017-11-13T05:47:00.750Z,5.21
2017-11-13T05:48:00.681Z,5.14
2017-11-13T05:49:00.661Z,5.15
2017-11-13T05:50:00.634Z,5.18
2017-11-13T05:51:00.611Z,5.14
2017-11-13T05:52:00.622Z,5.02
2017-11-13T05:53:00.566Z,5.11
2017-11-13T05:54:00.541Z,5.12
2017-11-13T05:55:00.566Z,5.14
2017-11-13T05:56:00.501Z,5.14
2017-11-13T05:57:00.474Z,5.18
2017-11-13T05:58:00.442Z,5.17
2017-11-13T05:59:00.422Z,5.07
2017-11-13T06:00:00.432Z,5.14
2017-11-13T06:01:00.420Z,5.12
2017-11-13T06:02:00.349Z,5.15
2017-11-13T06:03:00.331Z,5.15
2017-11-13T06:04:00.305Z,5.10
2017-11-13T06:05:00.301Z,5.12
2017-11-13T06:06:00.292Z,5.04
2017-11-13T06:07:00.235Z,5.02
2017-11-13T06:08:00.210Z,5.17
2017-11-13T06:09:00.188Z,5.02
2017-11-13T06:10:00.214Z,5.10
2017-11-13T06:11:00.138Z,5.14
2017-11-13T06:12:00.123Z,5.11
2017-11-13T06:13:00.094Z,5.10
2017-11-13T06:14:00.112Z,5.11
2017-11-13T06:15:00.050Z,5.07
2017-11-13T06:16:00.023Z,5.10
2017-11-13T06:16:59.998Z,5.05
2017-11-13T06:17:59.979Z,5.08
2017-11-13T06:18:59.988Z,5.07
2017-11-13T06:19:59.927Z,5.00
2017-11-13T06:20:59.909Z,5.08
2017-11-13T06:21:59.950Z,5.05
2017-11-13T06:22:59.860Z,5.05
2017-11-13T06:23:59.834Z,4.96
2017-11-13T06:24:59.809Z,5.02
2017-11-13T06:25:59.789Z,5.08
2017-11-13T06:26:59.795Z,5.10
2017-11-13T06:27:59.738Z,5.05
2017-11-13T06:28:59.717Z,5.07
2017-11-13T06:29:59.730Z,4.96
2017-11-13T06:30:59.669Z,4.97
2017-11-13T06:31:59.654Z,4.97
2017-11-13T06:32:59.624Z,5.10
2017-11-13T06:33:59.636Z,5.04
2017-11-13T06:34:59.576Z,5.05
2017-11-13T06:35:59.593Z,4.94
2017-11-13T06:37:09.543Z,5.04
2017-11-13T06:37:59.507Z,5.05
2017-11-13T06:38:59.480Z,5.04
2017-11-13T06:39:59.461Z,5.14
2017-11-13T06:40:59.473Z,5.05
2017-11-13T06:41:59.410Z,5.11
2017-11-13T06:42:59.421Z,5.07
2017-11-13T06:43:59.363Z,5.11
2017-11-13T06:44:59.342Z,5.15
2017-11-13T06:45:59.320Z,5.10
2017-11-13T06:46:59.291Z,5.08
2017-11-13T06:47:59.310Z,5.04
2017-11-13T06:48:59.244Z,5.07
2017-11-13T06:49:59.222Z,5.05
2017-11-13T06:50:59.200Z,5.11
2017-11-13T06:51:59.177Z,5.04
2017-11-13T06:52:59.185Z,5.07
2017-11-13T06:53:59.133Z,5.05
2017-11-13T06:54:59.137Z,5.02
2017-11-13T06:55:59.080Z,5.07
2017-11-13T06:56:59.060Z,5.02
2017-11-13T06:57:59.032Z,5.02
2017-11-13T06:58:59.011Z,5.02
2017-11-13T06:59:59.020Z,5.04
2017-11-13T07:00:59.026Z,4.93
2017-11-13T07:01:58.937Z,5.05
2017-11-13T07:02:58.916Z,5.11
2017-11-13T07:03:58.896Z,5.07
2017-11-13T07:04:58.867Z,5.05
2017-11-13T07:05:58.886Z,5.10
2017-11-13T07:06:58.821Z,5.07
2017-11-13T07:07:58.808Z,5.15
2017-11-13T07:08:58.805Z,5.00
2017-11-13T07:09:58.752Z,5.04
2017-11-13T07:10:58.772Z,5.20
2017-11-13T07:11:58.707Z,5.12
2017-11-13T07:12:58.683Z,5.14
2017-11-13T07:13:58.661Z,5.20
2017-11-13T07:14:58.634Z,5.15
2017-11-13T07:15:58.652Z,5.32
2017-11-13T07:16:58.608Z,5.30
2017-11-13T07:17:58.583Z,5.32
2017-11-13T07:18:58.544Z,5.28
2017-11-13T07:19:58.547Z,5.29
2017-11-13T07:20:58.539Z,5.28
2017-11-13T07:21:58.477Z,5.23
2017-11-13T07:22:58.447Z,5.25
2017-11-13T07:23:58.422Z,5.29
2017-11-13T07:24:58.439Z,5.32
2017-11-13T07:25:58.469Z,5.38
2017-11-13T07:26:58.354Z,5.39
2017-11-13T07:27:58.332Z,5.47
2017-11-13T07:28:58.325Z,5.53
2017-11-13T07:29:58.329Z,5.54
2017-11-13T07:30:58.260Z,5.53
2017-11-13T07:31:58.244Z,5.59
2017-11-13T07:32:58.218Z,5.56
2017-11-13T07:33:58.194Z,5.56
2017-11-13T07:34:58.201Z,5.64
2017-11-13T07:35:58.143Z,5.66
2017-11-13T07:36:58.160Z,5.76
2017-11-13T07:37:58.110Z,5.75
2017-11-13T07:38:58.083Z,5.87
2017-11-13T07:39:58.055Z,5.86
2017-11-13T07:40:58.060Z,5.91
2017-11-13T07:41:58.004Z,5.94
2017-11-13T07:42:57.982Z,6.05
2017-11-13T07:43:57.992Z,6.04
2017-11-13T07:44:57.939Z,6.08
2017-11-13T07:45:57.917Z,6.14
2017-11-13T07:46:57.924Z,6.14
2017-11-13T07:47:57.907Z,6.17
2017-11-13T07:48:57.884Z,6.08
2017-11-13T07:49:57.849Z,5.98
2017-11-13T07:50:57.797Z,5.98
2017-11-13T07:51:57.779Z,5.97
2017-11-13T07:52:57.759Z,5.99
2017-11-13T07:53:57.778Z,6.01
2017-11-13T07:54:57.712Z,6.07
2017-11-13T07:55:57.691Z,6.02
2017-11-13T07:56:57.667Z,6.17
2017-11-13T07:57:57.640Z,6.70
2017-11-13T07:58:57.651Z,7.42
2017-11-13T07:59:57.601Z,7.90
2017-11-13T08:00:57.626Z,7.88
2017-11-13T08:01:57.553Z,7.61
2017-11-13T08:02:57.530Z,7.77
2017-11-13T08:03:57.509Z,7.90
2017-11-13T08:04:57.488Z,8.23
2017-11-13T08:05:57.507Z,8.20
2017-11-13T08:06:57.446Z,8.55
2017-11-13T08:07:57.417Z,8.46
2017-11-13T08:08:57.397Z,8.52
2017-11-13T08:09:57.379Z,9.08
2017-11-13T08:10:57.395Z,9.18
2017-11-13T08:11:57.370Z,8.99
2017-11-13T08:12:57.327Z,9.58
2017-11-13T08:15:41.960Z,9.36
2017-11-13T08:16:41.911Z,8.69
2017-11-13T08:17:41.882Z,8.33
2017-11-13T08:18:41.854Z,8.03
2017-11-13T08:19:41.874Z,7.79
2017-11-13T08:20:41.853Z,7.66
2017-11-13T08:21:41.792Z,7.56
2017-11-13T08:22:51.468Z,7.50
2017-11-13T08:23:41.750Z,7.50
2017-11-13T08:24:51.504Z,7.40
2017-11-13T08:25:41.749Z,7.39
2017-11-13T08:26:41.687Z,7.36
2017-11-13T08:27:41.665Z,7.35
2017-11-13T08:28:41.644Z,7.35
2017-11-13T08:29:41.626Z,7.39
2017-11-13T08:30:41.637Z,7.40
2017-11-13T08:31:41.579Z,7.45
2017-11-13T08:32:41.568Z,7.43
2017-11-13T08:33:41.537Z,7.36
2017-11-13T08:34:41.552Z,7.39
2017-11-13T08:35:41.497Z,7.36
2017-11-13T08:36:41.473Z,7.39
2017-11-13T08:37:41.507Z,7.35
2017-11-13T08:38:41.433Z,7.39
2017-11-13T08:39:41.414Z,7.39
2017-11-13T08:40:41.393Z,7.35
2017-11-13T08:41:41.372Z,7.36
2017-11-13T08:42:41.404Z,7.25
2017-11-13T08:43:41.339Z,7.35
2017-11-13T08:44:41.305Z,7.33
2017-11-13T08:45:41.287Z,7.38
2017-11-13T08:46:41.266Z,7.39
2017-11-13T08:47:41.285Z,7.47
2017-11-13T08:48:41.223Z,7.56
2017-11-13T08:49:41.236Z,7.63
2017-11-13T08:50:41.185Z,7.76
2017-11-13T08:51:41.160Z,7.83
2017-11-13T08:52:41.135Z,7.82
2017-11-13T08:53:41.120Z,8.01
2017-11-13T08:54:41.145Z,7.98
2017-11-13T08:55:41.074Z,8.00
2017-11-13T08:56:41.052Z,7.90
2017-11-13T08:57:41.080Z,8.03
2017-11-13T08:58:41.014Z,8.05
2017-11-13T08:59:40.991Z,8.18
2017-11-13T09:00:40.972Z,8.20
2017-11-13T09:01:40.951Z,8.28
2017-11-13T09:02:40.971Z,8.56
2017-11-13T09:03:40.909Z,8.51
2017-11-13T09:04:40.889Z,8.60
2017-11-13T09:05:40.867Z,8.61
2017-11-13T09:06:40.871Z,8.45
2017-11-13T09:07:40.859Z,8.37
2017-11-13T09:08:40.808Z,8.34
2017-11-13T09:09:40.826Z,8.20
2017-11-13T09:10:40.769Z,8.30
2017-11-13T09:11:40.784Z,8.28
2017-11-13T09:12:40.724Z,8.24
2017-11-13T09:13:40.705Z,8.38
2017-11-13T09:14:40.688Z,8.34
2017-11-13T09:15:50.552Z,8.16
2017-11-13T09:16:40.678Z,8.26
2017-11-13T09:17:40.633Z,8.33
2017-11-13T09:18:40.645Z,8.23
2017-11-13T09:19:40.581Z,8.33
2017-11-13T09:20:40.570Z,8.20
2017-11-13T09:21:40.554Z,8.23
2017-11-13T09:22:40.523Z,8.27
2017-11-13T09:23:40.541Z,8.27
2017-11-13T09:24:40.496Z,8.37
2017-11-13T09:25:40.461Z,8.34
2017-11-13T09:26:40.438Z,8.31
2017-11-13T09:27:40.424Z,8.52
2017-11-13T09:28:40.431Z,8.52
2017-11-13T09:29:40.377Z,8.66
2017-11-13T09:30:40.408Z,8.64
2017-11-13T09:31:40.341Z,8.53
2017-11-13T09:32:40.320Z,8.70
2017-11-13T09:33:40.298Z,9.55
2017-11-13T09:34:40.276Z,9.84
2017-11-13T09:35:40.287Z,9.73
2017-11-13T09:36:40.239Z,9.73
2017-11-13T09:37:40.252Z,10.76
2017-11-13T09:38:40.197Z,11.40
2017-11-13T09:39:40.181Z,10.92
2017-11-13T09:40:40.157Z,10.40
2017-11-13T09:41:40.143Z,10.13
2017-11-13T09:42:40.157Z,9.89
2017-11-13T09:43:40.099Z,9.65
2017-11-13T09:44:40.078Z,9.50
2017-11-13T09:45:40.063Z,9.41
2017-11-13T09:46:40.041Z,9.40
2017-11-13T09:47:40.054Z,9.46
2017-11-13T09:48:40.001Z,9.59
2017-11-13T09:49:39.983Z,10.68
2017-11-13T09:50:39.961Z,11.10
2017-11-13T09:51:39.953Z,11.70
2017-11-13T09:52:39.958Z,12.04
2017-11-13T09:53:39.903Z,12.47
2017-11-13T09:54:39.931Z,12.93
2017-11-13T09:55:39.868Z,13.11
2017-11-13T09:56:39.848Z,12.49
2017-11-13T09:57:39.828Z,12.22
2017-11-13T09:58:39.812Z,12.72
2017-11-13T09:59:39.837Z,12.87
2017-11-13T10:00:39.779Z,13.52
2017-11-13T10:01:39.762Z,13.81
2017-11-13T10:02:39.739Z,13.93
2017-11-13T10:03:39.720Z,14.20
2017-11-13T10:04:39.749Z,13.87
2017-11-13T10:05:39.688Z,13.56
2017-11-13T10:06:39.675Z,13.99
2017-11-13T10:07:39.654Z,13.95
2017-11-13T10:08:39.635Z,13.93
2017-11-13T10:09:39.650Z,13.18
2017-11-13T10:10:39.608Z,12.49
2017-11-13T10:11:39.582Z,12.91
2017-11-13T10:12:39.606Z,12.50
2017-11-13T10:13:39.549Z,11.75
2017-11-13T10:14:39.532Z,11.48
2017-11-13T10:15:39.517Z,11.43
2017-11-13T10:16:39.498Z,11.11
2017-11-13T10:17:39.515Z,11.05
2017-11-13T10:18:39.467Z,10.94
2017-11-13T10:19:39.453Z,10.96
2017-11-13T10:20:39.433Z,10.68
2017-11-13T10:21:39.412Z,10.57
2017-11-13T10:22:39.431Z,10.31
2017-11-13T10:23:39.380Z,10.31
2017-11-13T10:24:39.367Z,10.87
2017-11-13T10:25:39.380Z,10.71
2017-11-13T10:26:39.328Z,10.49
2017-11-13T10:27:39.313Z,10.46
2017-11-13T10:28:39.341Z,10.35
2017-11-13T10:29:39.279Z,10.33
2017-11-13T10:30:39.257Z,10.28
2017-11-13T10:31:39.277Z,10.68
2017-11-13T10:32:39.225Z,11.11
2017-11-13T10:33:39.206Z,11.35
2017-11-13T10:34:39.186Z,11.87
2017-11-13T10:35:39.176Z,11.88
2017-11-13T10:36:39.201Z,12.12
2017-11-13T10:37:39.135Z,12.13
2017-11-13T10:38:39.153Z,12.75
2017-11-13T10:39:39.101Z,13.01
2017-11-13T10:40:39.105Z,13.12
2017-11-13T10:41:39.063Z,13.22
2017-11-13T10:42:39.045Z,13.44
2017-11-13T10:43:39.061Z,13.70
2017-11-13T10:44:39.013Z,13.93
2017-11-13T10:45:38.996Z,13.74
2017-11-13T10:46:38.988Z,13.59
2017-11-13T10:47:38.956Z,13.37
2017-11-13T10:48:38.974Z,13.22
2017-11-13T10:49:38.926Z,12.79
2017-11-13T10:50:38.905Z,12.53
2017-11-13T10:51:38.887Z,11.95
2017-11-13T10:52:38.873Z,11.73
2017-11-13T10:53:38.906Z,11.78
2017-11-13T10:54:38.833Z,12.04
2017-11-13T10:55:38.815Z,12.18
2017-11-13T10:56:38.804Z,12.45
2017-11-13T10:57:38.822Z,12.43
2017-11-13T10:58:38.795Z,12.53
2017-11-13T10:59:38.747Z,12.28
2017-11-13T11:00:38.767Z,12.32
2017-11-13T11:01:38.712Z,12.45
2017-11-13T11:02:38.692Z,12.46
2017-11-13T11:03:38.675Z,12.62
2017-11-13T11:04:38.656Z,12.65
2017-11-13T11:05:38.676Z,12.49
2017-11-13T11:06:38.629Z,12.57
2017-11-13T11:07:38.601Z,12.83
2017-11-13T11:08:38.587Z,12.79
2017-11-13T11:09:38.564Z,12.82
2017-11-13T11:10:38.592Z,12.82
2017-11-13T11:11:38.527Z,12.60
2017-11-13T11:12:38.531Z,12.47
2017-11-13T11:13:38.496Z,12.31
2017-11-13T11:14:38.480Z,12.00
2017-11-13T11:15:38.492Z,11.62
2017-11-13T11:16:38.444Z,11.33
2017-11-13T11:17:38.419Z,11.10
2017-11-13T11:18:38.407Z,10.87
2017-11-13T11:19:38.384Z,10.76
2017-11-13T11:20:38.402Z,10.64
2017-11-13T11:21:38.347Z,10.49
2017-11-13T11:22:38.342Z,10.63
2017-11-13T11:23:38.383Z,10.51
2017-11-13T11:24:38.291Z,10.49
2017-11-13T11:25:38.279Z,10.54
2017-11-13T11:26:38.258Z,10.56
2017-11-13T11:27:38.235Z,10.53
2017-11-13T11:28:38.250Z,10.37
2017-11-13T11:29:38.248Z,10.37
2017-11-13T11:30:38.183Z,10.46
2017-11-13T11:31:38.162Z,10.51
2017-11-13T11:32:38.139Z,10.57
2017-11-13T11:33:38.126Z,10.53
2017-11-13T11:34:38.140Z,10.44
2017-11-13T11:35:38.085Z,10.46
2017-11-13T11:36:38.077Z,10.38
2017-11-13T11:37:38.048Z,10.37
2017-11-13T11:38:38.032Z,10.31
2017-11-13T11:39:38.041Z,10.34
2017-11-13T11:40:37.999Z,10.41
2017-11-13T11:41:37.972Z,10.42
2017-11-13T11:42:37.953Z,10.35
2017-11-13T11:43:37.932Z,10.44
2017-11-13T11:44:37.954Z,10.46
2017-11-13T11:45:37.903Z,10.35
2017-11-13T11:46:37.878Z,10.38
2017-11-13T11:47:37.858Z,10.34
2017-11-13T11:48:37.890Z,10.35
2017-11-13T11:49:37.832Z,10.35
2017-11-13T11:50:37.802Z,10.38
2017-11-13T11:51:37.781Z,10.37
2017-11-13T11:52:37.769Z,10.34
2017-11-13T11:53:37.787Z,10.34
2017-11-13T11:54:37.727Z,10.16
2017-11-13T11:55:37.709Z,10.15
2017-11-13T11:56:37.691Z,10.16
2017-11-13T11:57:38.584Z,10.13
2017-11-13T11:58:37.680Z,10.17
2017-11-13T11:59:37.634Z,10.07
2017-11-13T12:00:37.617Z,10.16
2017-11-13T12:01:37.591Z,10.31
2017-11-13T12:02:37.573Z,10.23
2017-11-13T12:03:37.595Z,10.38
2017-11-13T12:04:37.533Z,10.42
2017-11-13T12:05:37.526Z,10.46
2017-11-13T12:06:37.498Z,10.46
2017-11-13T12:07:37.511Z,10.57
2017-11-13T12:08:37.456Z,10.53
2017-11-13T12:09:37.438Z,10.61
2017-11-13T12:10:37.456Z,10.64
2017-11-13T12:11:37.399Z,10.68
2017-11-13T12:12:37.381Z,10.49
2017-11-13T12:13:37.391Z,10.53
2017-11-13T12:14:37.343Z,10.49
2017-11-13T12:15:37.323Z,10.46
2017-11-13T12:16:37.305Z,10.49
2017-11-13T12:17:37.343Z,10.53
2017-11-13T12:18:37.267Z,10.44
2017-11-13T12:19:37.247Z,10.46
2017-11-13T12:20:37.229Z,10.37
2017-11-13T12:21:38.085Z,10.34
2017-11-13T12:22:37.225Z,10.28
2017-11-13T12:23:37.173Z,10.22
2017-11-13T12:24:47.135Z,10.10
2017-11-13T12:25:37.181Z,10.23
2017-11-13T12:26:37.113Z,10.25
2017-11-13T12:27:37.094Z,10.31
2017-11-13T12:28:37.075Z,10.42
2017-11-13T12:29:37.073Z,10.56
2017-11-13T12:30:37.068Z,10.53
2017-11-13T12:31:37.019Z,10.42
2017-11-13T12:32:36.995Z,10.49
2017-11-13T12:33:37.022Z,10.37
2017-11-13T12:34:36.960Z,10.23
2017-11-13T12:35:36.939Z,10.07
2017-11-13T12:36:36.920Z,10.10
2017-11-13T12:37:36.899Z,10.12
2017-11-13T12:38:36.928Z,10.20
2017-11-13T12:39:36.866Z,10.16
2017-11-13T12:40:36.851Z,10.16
2017-11-13T12:41:46.665Z,10.10
2017-11-13T12:42:46.688Z,9.99
2017-11-13T12:43:36.823Z,10.12
2017-11-13T12:44:36.771Z,9.95
2017-11-13T12:45:36.753Z,9.95
2017-11-13T12:46:36.731Z,9.84
2017-11-13T12:47:36.709Z,9.97
2017-11-13T12:48:36.743Z,9.84
2017-11-13T12:49:36.673Z,9.89
2017-11-13T12:50:36.689Z,9.92
2017-11-13T12:51:36.634Z,9.91
2017-11-13T12:52:36.646Z,10.04
2017-11-13T12:53:36.609Z,9.98
2017-11-13T12:54:36.572Z,10.10
2017-11-13T12:55:36.555Z,10.12
2017-11-13T12:56:36.535Z,9.95
2017-11-13T12:57:36.566Z,10.07
2017-11-13T12:58:36.499Z,10.16
2017-11-13T12:59:36.483Z,10.16
2017-11-13T13:00:36.455Z,10.10
2017-11-13T13:01:36.438Z,10.15
2017-11-13T13:02:36.460Z,10.13
2017-11-13T13:03:36.398Z,10.16
2017-11-13T13:04:36.385Z,10.09
2017-11-13T13:05:36.405Z,10.20
2017-11-13T13:06:36.342Z,10.26
2017-11-13T13:07:36.320Z,10.35
2017-11-13T13:08:36.300Z,10.42
2017-11-13T13:09:36.286Z,10.57
2017-11-13T13:10:36.306Z,10.56
2017-11-13T13:11:36.250Z,10.63
2017-11-13T13:12:36.228Z,10.75